sensor_id;sensor_type;location;lat;lon;timestamp;pressure;altitude;pressure_sealevel;temperature;humidity
6134;BME280;3098;42.678;23.364;2023-05-11T00:00:24;95162.56;;;9.24;100.00
6134;BME280;3098;42.678;23.364;2023-05-11T00:02:51;95149.41;;;9.19;100.00
6134;BME280;3098;42.678;23.364;2023-05-11T00:05:18;95099.34;;;8.77;100.00
6134;BME280;3098;42.678;23.364;2023-05-11T00:07:45;95159.81;;;9.16;100.00
6134;BME280;3098;42.678;23.364;2023-05-11T00:10:14;95106.22;;;8.78;100.00
6134;BME280;3098;42.678;23.364;2023-05-11T00:12:42;95165.25;;;9.06;100.00
6134;BME280;3098;42.678;23.364;2023-05-11T00:15:09;95158.19;;;9.01;100.00
6134;BME280;3098;42.678;23.364;2023-05-11T00:17:36;95107.47;;;8.67;100.00
6134;BME280;3098;42.678;23.364;2023-05-11T00:20:04;95158.19;;;9.01;100.00
6134;BME280;3098;42.678;23.364;2023-05-11T00:22:31;95158.47;;;9.00;100.00
6134;BME280;3098;42.678;23.364;2023-05-11T00:24:58;95157.41;;;9.01;100.00
6134;BME280;3098;42.678;23.364;2023-05-11T00:27:26;95133.84;;;8.86;100.00
6134;BME280;3098;42.678;23.364;2023-05-11T00:29:54;95164.66;;;8.95;100.00
6134;BME280;3098;42.678;23.364;2023-05-11T00:32:21;95165.81;;;8.89;100.00
6134;BME280;3098;42.678;23.364;2023-05-11T00:34:48;95148.06;;;8.76;100.00
6134;BME280;3098;42.678;23.364;2023-05-11T00:37:15;95167.19;;;8.87;100.00
6134;BME280;3098;42.678;23.364;2023-05-11T00:39:42;95121.06;;;8.60;100.00
6134;BME280;3098;42.678;23.364;2023-05-11T00:42:09;95143.13;;;8.70;100.00
6134;BME280;3098;42.678;23.364;2023-05-11T00:44:38;95171.56;;;8.78;100.00
6134;BME280;3098;42.678;23.364;2023-05-11T00:47:05;95145.44;;;8.57;100.00
6134;BME280;3098;42.678;23.364;2023-05-11T00:49:34;95167.06;;;8.78;100.00
6134;BME280;3098;42.678;23.364;2023-05-11T00:52:01;95163.72;;;8.73;100.00
6134;BME280;3098;42.678;23.364;2023-05-11T00:54:29;95162.22;;;8.66;100.00
6134;BME280;3098;42.678;23.364;2023-05-11T00:56:56;95164.84;;;8.66;100.00
6134;BME280;3098;42.678;23.364;2023-05-11T00:59:23;95164.84;;;8.66;100.00
6134;BME280;3098;42.678;23.364;2023-05-11T01:01:51;95162.50;;;8.65;100.00
6134;BME280;3098;42.678;23.364;2023-05-11T01:04:19;95165.44;;;8.63;100.00
6134;BME280;3098;42.678;23.364;2023-05-11T01:06:51;95141.03;;;8.53;100.00
6134;BME280;3098;42.678;23.364;2023-05-11T01:09:30;95137.66;;;8.47;100.00
6134;BME280;3098;42.678;23.364;2023-05-11T01:12:07;95158.88;;;8.61;100.00
6134;BME280;3098;42.678;23.364;2023-05-11T01:14:40;95123.53;;;8.38;100.00
6134;BME280;3098;42.678;23.364;2023-05-11T01:17:19;95117.38;;;8.24;100.00
6134;BME280;3098;42.678;23.364;2023-05-11T01:19:53;95101.59;;;8.19;100.00
6134;BME280;3098;42.678;23.364;2023-05-11T01:22:33;95162.97;;;8.53;100.00
6134;BME280;3098;42.678;23.364;2023-05-11T01:25:20;95156.00;;;8.57;100.00
6134;BME280;3098;42.678;23.364;2023-05-11T01:28:06;95116.88;;;8.22;100.00
6134;BME280;3098;42.678;23.364;2023-05-11T01:30:42;95105.31;;;8.18;100.00
6134;BME280;3098;42.678;23.364;2023-05-11T01:33:13;95152.25;;;8.45;100.00
6134;BME280;3098;42.678;23.364;2023-05-11T01:35:47;95099.66;;;8.06;100.00
6134;BME280;3098;42.678;23.364;2023-05-11T01:38:18;95131.47;;;8.38;100.00
6134;BME280;3098;42.678;23.364;2023-05-11T01:40:51;95166.97;;;8.51;100.00
6134;BME280;3098;42.678;23.364;2023-05-11T01:43:23;95160.88;;;8.50;100.00
6134;BME280;3098;42.678;23.364;2023-05-11T01:45:55;95058.78;;;7.85;100.00
6134;BME280;3098;42.678;23.364;2023-05-11T01:48:27;95136.47;;;8.40;100.00
6134;BME280;3098;42.678;23.364;2023-05-11T01:50:58;95098.13;;;8.05;100.00
6134;BME280;3098;42.678;23.364;2023-05-11T01:53:27;95122.25;;;8.36;100.00
6134;BME280;3098;42.678;23.364;2023-05-11T01:55:57;95118.41;;;8.28;100.00
6134;BME280;3098;42.678;23.364;2023-05-11T01:58:26;95125.66;;;8.18;100.00
6134;BME280;3098;42.678;23.364;2023-05-11T02:00:55;95175.47;;;8.48;100.00
6134;BME280;3098;42.678;23.364;2023-05-11T02:03:25;95071.34;;;7.74;100.00
6134;BME280;3098;42.678;23.364;2023-05-11T02:05:54;95171.41;;;8.37;100.00
6134;BME280;3098;42.678;23.364;2023-05-11T02:08:23;95178.31;;;8.33;100.00
6134;BME280;3098;42.678;23.364;2023-05-11T02:10:53;95110.03;;;8.02;100.00
6134;BME280;3098;42.678;23.364;2023-05-11T02:13:21;95111.41;;;8.00;100.00
6134;BME280;3098;42.678;23.364;2023-05-11T02:15:52;95094.88;;;7.89;100.00
6134;BME280;3098;42.678;23.364;2023-05-11T02:18:23;95139.66;;;8.18;100.00
6134;BME280;3098;42.678;23.364;2023-05-11T02:20:50;95145.25;;;8.17;100.00
6134;BME280;3098;42.678;23.364;2023-05-11T02:23:19;95149.16;;;8.19;100.00
6134;BME280;3098;42.678;23.364;2023-05-11T02:25:49;95173.19;;;8.41;100.00
6134;BME280;3098;42.678;23.364;2023-05-11T02:28:18;95076.78;;;7.83;100.00
6134;BME280;3098;42.678;23.364;2023-05-11T02:30:49;95171.97;;;8.34;100.00
6134;BME280;3098;42.678;23.364;2023-05-11T02:33:19;95154.28;;;8.34;100.00
6134;BME280;3098;42.678;23.364;2023-05-11T02:35:50;95125.03;;;8.07;100.00
6134;BME280;3098;42.678;23.364;2023-05-11T02:38:24;95161.09;;;8.35;100.00
6134;BME280;3098;42.678;23.364;2023-05-11T02:40:59;95006.75;;;7.29;100.00
6134;BME280;3098;42.678;23.364;2023-05-11T02:43:31;95161.47;;;8.29;100.00
6134;BME280;3098;42.678;23.364;2023-05-11T02:46:02;95155.41;;;8.28;100.00
6134;BME280;3098;42.678;23.364;2023-05-11T02:48:34;95111.44;;;7.95;100.00
6134;BME280;3098;42.678;23.364;2023-05-11T02:51:06;95156.69;;;8.31;100.00
6134;BME280;3098;42.678;23.364;2023-05-11T02:53:36;95149.88;;;8.25;100.00
6134;BME280;3098;42.678;23.364;2023-05-11T02:56:05;95136.78;;;8.15;100.00
6134;BME280;3098;42.678;23.364;2023-05-11T02:58:33;95149.81;;;8.11;100.00
6134;BME280;3098;42.678;23.364;2023-05-11T03:01:00;95120.81;;;7.87;100.00
6134;BME280;3098;42.678;23.364;2023-05-11T03:03:28;95115.53;;;7.87;100.00
6134;BME280;3098;42.678;23.364;2023-05-11T03:05:56;95149.84;;;8.06;100.00
6134;BME280;3098;42.678;23.364;2023-05-11T03:08:26;95114.25;;;7.66;100.00
6134;BME280;3098;42.678;23.364;2023-05-11T03:10:54;95150.50;;;7.98;100.00
6134;BME280;3098;42.678;23.364;2023-05-11T03:13:23;95115.72;;;7.72;100.00
6134;BME280;3098;42.678;23.364;2023-05-11T03:15:51;95093.22;;;7.56;100.00
6134;BME280;3098;42.678;23.364;2023-05-11T03:18:20;95149.28;;;7.90;100.00
6134;BME280;3098;42.678;23.364;2023-05-11T03:20:48;95079.16;;;7.42;100.00
6134;BME280;3098;42.678;23.364;2023-05-11T03:23:16;95146.66;;;7.90;100.00
6134;BME280;3098;42.678;23.364;2023-05-11T03:25:46;95152.16;;;7.94;100.00
6134;BME280;3098;42.678;23.364;2023-05-11T03:28:13;95119.22;;;7.68;100.00
6134;BME280;3098;42.678;23.364;2023-05-11T03:30:44;95176.00;;;7.89;100.00
6134;BME280;3098;42.678;23.364;2023-05-11T03:33:12;95163.56;;;7.89;100.00
6134;BME280;3098;42.678;23.364;2023-05-11T03:35:41;95110.50;;;7.48;100.00
6134;BME280;3098;42.678;23.364;2023-05-11T03:38:11;95162.28;;;7.87;100.00
6134;BME280;3098;42.678;23.364;2023-05-11T03:40:39;95117.72;;;7.62;100.00
6134;BME280;3098;42.678;23.364;2023-05-11T03:43:10;95078.56;;;7.26;100.00
6134;BME280;3098;42.678;23.364;2023-05-11T03:45:38;95164.56;;;7.93;100.00
6134;BME280;3098;42.678;23.364;2023-05-11T03:48:07;95165.38;;;7.94;100.00
6134;BME280;3098;42.678;23.364;2023-05-11T03:50:37;95169.34;;;7.91;100.00
6134;BME280;3098;42.678;23.364;2023-05-11T03:53:04;95171.22;;;7.91;100.00
6134;BME280;3098;42.678;23.364;2023-05-11T03:55:32;95105.94;;;7.54;100.00
6134;BME280;3098;42.678;23.364;2023-05-11T03:57:59;95174.56;;;7.96;100.00
6134;BME280;3098;42.678;23.364;2023-05-11T04:00:28;95156.56;;;7.80;100.00
6134;BME280;3098;42.678;23.364;2023-05-11T04:02:56;95155.13;;;7.87;100.00
6134;BME280;3098;42.678;23.364;2023-05-11T04:05:23;95177.56;;;7.90;100.00
6134;BME280;3098;42.678;23.364;2023-05-11T04:07:50;95074.97;;;7.17;100.00
6134;BME280;3098;42.678;23.364;2023-05-11T04:10:17;95128.28;;;7.62;100.00
6134;BME280;3098;42.678;23.364;2023-05-11T04:12:44;95148.66;;;7.56;100.00
6134;BME280;3098;42.678;23.364;2023-05-11T04:15:11;95105.38;;;7.33;100.00
6134;BME280;3098;42.678;23.364;2023-05-11T04:17:40;95176.19;;;7.92;100.00
6134;BME280;3098;42.678;23.364;2023-05-11T04:20:07;95172.84;;;7.87;100.00
6134;BME280;3098;42.678;23.364;2023-05-11T04:22:34;95143.78;;;7.68;100.00
6134;BME280;3098;42.678;23.364;2023-05-11T04:25:01;95184.63;;;7.94;100.00
6134;BME280;3098;42.678;23.364;2023-05-11T04:27:31;95154.03;;;7.70;100.00
6134;BME280;3098;42.678;23.364;2023-05-11T04:29:59;95148.72;;;7.75;100.00
6134;BME280;3098;42.678;23.364;2023-05-11T04:32:25;95190.69;;;7.95;100.00
6134;BME280;3098;42.678;23.364;2023-05-11T04:34:54;95160.75;;;7.81;100.00
6134;BME280;3098;42.678;23.364;2023-05-11T04:37:21;95162.63;;;7.80;100.00
6134;BME280;3098;42.678;23.364;2023-05-11T04:39:48;95151.41;;;7.70;100.00
6134;BME280;3098;42.678;23.364;2023-05-11T04:42:15;95137.25;;;7.61;100.00
6134;BME280;3098;42.678;23.364;2023-05-11T04:44:43;95154.66;;;7.62;100.00
6134;BME280;3098;42.678;23.364;2023-05-11T04:47:10;95148.59;;;7.61;100.00
6134;BME280;3098;42.678;23.364;2023-05-11T04:49:37;95184.47;;;7.86;100.00
6134;BME280;3098;42.678;23.364;2023-05-11T04:52:06;95192.59;;;7.89;100.00
6134;BME280;3098;42.678;23.364;2023-05-11T04:54:33;95212.44;;;7.87;100.00
6134;BME280;3098;42.678;23.364;2023-05-11T04:57:01;95184.47;;;7.86;100.00
6134;BME280;3098;42.678;23.364;2023-05-11T04:59:28;95179.81;;;7.78;100.00
6134;BME280;3098;42.678;23.364;2023-05-11T05:01:55;95185.16;;;7.73;100.00
6134;BME280;3098;42.678;23.364;2023-05-11T05:04:22;95174.88;;;7.71;100.00
6134;BME280;3098;42.678;23.364;2023-05-11T05:06:49;95207.88;;;7.92;100.00
6134;BME280;3098;42.678;23.364;2023-05-11T05:09:17;95140.50;;;7.52;100.00
6134;BME280;3098;42.678;23.364;2023-05-11T05:11:44;95206.59;;;7.90;100.00
6134;BME280;3098;42.678;23.364;2023-05-11T05:14:12;95107.19;;;7.14;100.00
6134;BME280;3098;42.678;23.364;2023-05-11T05:16:39;95154.63;;;7.43;100.00
6134;BME280;3098;42.678;23.364;2023-05-11T05:19:07;95145.84;;;7.47;100.00
6134;BME280;3098;42.678;23.364;2023-05-11T05:21:37;95212.44;;;7.87;100.00
6134;BME280;3098;42.678;23.364;2023-05-11T05:24:05;95197.16;;;7.84;100.00
6134;BME280;3098;42.678;23.364;2023-05-11T05:26:37;95193.47;;;7.85;100.00
6134;BME280;3098;42.678;23.364;2023-05-11T05:29:03;95237.91;;;8.01;100.00
6134;BME280;3098;42.678;23.364;2023-05-11T05:31:31;95187.41;;;7.84;100.00
6134;BME280;3098;42.678;23.364;2023-05-11T05:33:58;95165.69;;;7.69;100.00
6134;BME280;3098;42.678;23.364;2023-05-11T05:36:25;95159.16;;;7.61;100.00
6134;BME280;3098;42.678;23.364;2023-05-11T05:38:52;95160.97;;;7.66;100.00
6134;BME280;3098;42.678;23.364;2023-05-11T05:41:20;95228.78;;;8.13;100.00
6134;BME280;3098;42.678;23.364;2023-05-11T05:43:49;95231.19;;;8.09;100.00
6134;BME280;3098;42.678;23.364;2023-05-11T05:46:16;95230.34;;;8.14;100.00
6134;BME280;3098;42.678;23.364;2023-05-11T05:48:43;95229.78;;;8.17;100.00
6134;BME280;3098;42.678;23.364;2023-05-11T05:51:10;95172.91;;;7.82;100.00
6134;BME280;3098;42.678;23.364;2023-05-11T05:53:37;95228.34;;;8.05;100.00
6134;BME280;3098;42.678;23.364;2023-05-11T05:56:05;95228.38;;;8.00;100.00
6134;BME280;3098;42.678;23.364;2023-05-11T05:58:32;95239.75;;;8.01;100.00
6134;BME280;3098;42.678;23.364;2023-05-11T06:01:02;95170.97;;;7.69;100.00
6134;BME280;3098;42.678;23.364;2023-05-11T06:03:29;95237.81;;;8.06;100.00
6134;BME280;3098;42.678;23.364;2023-05-11T06:05:56;95245.09;;;7.96;100.00
6134;BME280;3098;42.678;23.364;2023-05-11T06:08:26;95250.88;;;7.98;100.00
6134;BME280;3098;42.678;23.364;2023-05-11T06:10:53;95206.28;;;7.73;100.00
6134;BME280;3098;42.678;23.364;2023-05-11T06:13:21;95101.84;;;7.19;100.00
6134;BME280;3098;42.678;23.364;2023-05-11T06:15:48;95239.09;;;8.09;100.00
6134;BME280;3098;42.678;23.364;2023-05-11T06:18:16;95202.09;;;7.72;100.00
6134;BME280;3098;42.678;23.364;2023-05-11T06:20:44;95249.19;;;8.07;100.00
6134;BME280;3098;42.678;23.364;2023-05-11T06:23:12;95216.09;;;7.91;100.00
6134;BME280;3098;42.678;23.364;2023-05-11T06:25:39;95243.78;;;8.17;100.00
6134;BME280;3098;42.678;23.364;2023-05-11T06:28:06;95267.56;;;8.17;100.00
6134;BME280;3098;42.678;23.364;2023-05-11T06:30:34;95258.00;;;8.21;100.00
6134;BME280;3098;42.678;23.364;2023-05-11T06:33:01;95086.59;;;7.16;100.00
6134;BME280;3098;42.678;23.364;2023-05-11T06:35:30;95264.41;;;8.15;100.00
6134;BME280;3098;42.678;23.364;2023-05-11T06:37:57;95241.81;;;8.04;100.00
6134;BME280;3098;42.678;23.364;2023-05-11T06:40:24;95231.25;;;8.04;100.00
6134;BME280;3098;42.678;23.364;2023-05-11T06:42:52;95169.03;;;7.74;100.00
6134;BME280;3098;42.678;23.364;2023-05-11T06:45:19;95071.66;;;7.30;100.00
6134;BME280;3098;42.678;23.364;2023-05-11T06:47:46;95285.06;;;8.55;100.00
6134;BME280;3098;42.678;23.364;2023-05-11T06:50:13;95251.56;;;8.51;100.00
6134;BME280;3098;42.678;23.364;2023-05-11T06:52:41;95114.41;;;7.51;100.00
6134;BME280;3098;42.678;23.364;2023-05-11T06:55:11;95225.66;;;8.29;100.00
6134;BME280;3098;42.678;23.364;2023-05-11T06:57:38;95258.53;;;8.60;100.00
6134;BME280;3098;42.678;23.364;2023-05-11T07:00:06;95257.84;;;8.74;100.00
6134;BME280;3098;42.678;23.364;2023-05-11T07:02:34;95233.38;;;8.63;100.00
6134;BME280;3098;42.678;23.364;2023-05-11T07:05:01;95226.81;;;8.60;100.00
6134;BME280;3098;42.678;23.364;2023-05-11T07:07:31;95261.47;;;8.96;100.00
6134;BME280;3098;42.678;23.364;2023-05-11T07:09:59;95171.59;;;8.59;100.00
6134;BME280;3098;42.678;23.364;2023-05-11T07:12:26;95259.94;;;9.09;100.00
6134;BME280;3098;42.678;23.364;2023-05-11T07:14:54;95257.69;;;9.02;100.00
6134;BME280;3098;42.678;23.364;2023-05-11T07:17:21;95259.69;;;9.24;100.00
6134;BME280;3098;42.678;23.364;2023-05-11T07:19:49;95195.13;;;8.93;100.00
6134;BME280;3098;42.678;23.364;2023-05-11T07:22:17;95186.59;;;8.96;100.00
6134;BME280;3098;42.678;23.364;2023-05-11T07:24:45;95276.28;;;9.30;100.00
6134;BME280;3098;42.678;23.364;2023-05-11T07:27:14;95261.88;;;9.36;100.00
6134;BME280;3098;42.678;23.364;2023-05-11T07:29:42;95244.88;;;9.23;100.00
6134;BME280;3098;42.678;23.364;2023-05-11T07:32:09;95226.25;;;9.28;100.00
6134;BME280;3098;42.678;23.364;2023-05-11T07:34:36;95129.66;;;8.52;100.00
6134;BME280;3098;42.678;23.364;2023-05-11T07:37:05;95265.84;;;9.65;100.00
6134;BME280;3098;42.678;23.364;2023-05-11T07:39:33;95226.59;;;9.54;100.00
6134;BME280;3098;42.678;23.364;2023-05-11T07:42:01;95253.22;;;9.90;100.00
6134;BME280;3098;42.678;23.364;2023-05-11T07:44:29;95110.78;;;9.18;99.54
6134;BME280;3098;42.678;23.364;2023-05-11T07:46:56;95263.25;;;10.20;99.30
6134;BME280;3098;42.678;23.364;2023-05-11T07:49:24;95231.72;;;10.05;99.17
6134;BME280;3098;42.678;23.364;2023-05-11T07:51:51;95230.06;;;10.09;99.79
6134;BME280;3098;42.678;23.364;2023-05-11T07:54:18;95211.41;;;10.14;99.02
6134;BME280;3098;42.678;23.364;2023-05-11T07:56:46;95281.38;;;10.54;98.45
6134;BME280;3098;42.678;23.364;2023-05-11T07:59:14;95281.66;;;10.66;97.29
6134;BME280;3098;42.678;23.364;2023-05-11T08:01:43;95228.13;;;10.50;96.99
6134;BME280;3098;42.678;23.364;2023-05-11T08:04:10;95136.03;;;10.20;96.10
6134;BME280;3098;42.678;23.364;2023-05-11T08:06:37;95229.94;;;10.99;94.01
6134;BME280;3098;42.678;23.364;2023-05-11T08:09:04;95190.59;;;11.23;93.16
6134;BME280;3098;42.678;23.364;2023-05-11T08:11:33;95268.53;;;12.02;88.79
6134;BME280;3098;42.678;23.364;2023-05-11T08:14:02;95259.25;;;11.38;89.19
6134;BME280;3098;42.678;23.364;2023-05-11T08:16:29;95277.66;;;11.13;88.67
6134;BME280;3098;42.678;23.364;2023-05-11T08:19:00;95118.47;;;10.46;89.63
6134;BME280;3098;42.678;23.364;2023-05-11T08:21:27;95225.91;;;11.02;88.15
6134;BME280;3098;42.678;23.364;2023-05-11T08:23:55;95265.44;;;11.78;88.14
6134;BME280;3098;42.678;23.364;2023-05-11T08:26:22;95268.38;;;12.07;86.19
6134;BME280;3098;42.678;23.364;2023-05-11T08:28:50;95238.22;;;11.73;86.51
6134;BME280;3098;42.678;23.364;2023-05-11T08:31:17;95257.53;;;11.95;87.29
6134;BME280;3098;42.678;23.364;2023-05-11T08:33:45;95007.50;;;10.70;85.17
6134;BME280;3098;42.678;23.364;2023-05-11T08:36:13;95252.53;;;11.94;83.59
6134;BME280;3098;42.678;23.364;2023-05-11T08:38:41;95170.38;;;11.75;83.10
6134;BME280;3098;42.678;23.364;2023-05-11T08:41:10;95229.38;;;11.86;82.57
6134;BME280;3098;42.678;23.364;2023-05-11T08:43:39;95240.59;;;12.22;83.81
6134;BME280;3098;42.678;23.364;2023-05-11T08:46:08;95176.59;;;11.31;83.93
6134;BME280;3098;42.678;23.364;2023-05-11T08:48:37;95268.59;;;11.80;84.85
6134;BME280;3098;42.678;23.364;2023-05-11T08:51:05;95255.56;;;11.70;84.40
6134;BME280;3098;42.678;23.364;2023-05-11T08:53:34;95260.75;;;12.15;84.06
6134;BME280;3098;42.678;23.364;2023-05-11T08:56:02;95204.97;;;11.92;83.90
6134;BME280;3098;42.678;23.364;2023-05-11T08:58:32;95257.00;;;12.24;82.92
6134;BME280;3098;42.678;23.364;2023-05-11T09:01:02;95197.31;;;11.82;84.53
6134;BME280;3098;42.678;23.364;2023-05-11T09:03:34;95232.31;;;11.84;85.19
6134;BME280;3098;42.678;23.364;2023-05-11T09:06:03;95252.94;;;11.79;86.20
6134;BME280;3098;42.678;23.364;2023-05-11T09:08:36;95249.91;;;12.02;86.99
6134;BME280;3098;42.678;23.364;2023-05-11T09:11:03;95255.19;;;11.63;88.65
6134;BME280;3098;42.678;23.364;2023-05-11T09:13:31;95247.06;;;11.68;90.33
6134;BME280;3098;42.678;23.364;2023-05-11T09:15:59;95212.19;;;11.61;88.98
6134;BME280;3098;42.678;23.364;2023-05-11T09:18:27;95254.00;;;11.69;89.85
6134;BME280;3098;42.678;23.364;2023-05-11T09:20:54;95249.41;;;11.92;90.56
6134;BME280;3098;42.678;23.364;2023-05-11T09:23:23;95240.34;;;12.01;88.01
6134;BME280;3098;42.678;23.364;2023-05-11T09:25:53;95254.59;;;12.62;86.13
6134;BME280;3098;42.678;23.364;2023-05-11T09:28:21;95242.72;;;13.11;82.88
6134;BME280;3098;42.678;23.364;2023-05-11T09:30:48;95260.06;;;12.57;84.49
6134;BME280;3098;42.678;23.364;2023-05-11T09:33:21;95209.31;;;12.36;85.79
6134;BME280;3098;42.678;23.364;2023-05-11T09:35:48;95257.38;;;12.48;85.31
6134;BME280;3098;42.678;23.364;2023-05-11T09:38:16;95262.19;;;11.90;85.76
6134;BME280;3098;42.678;23.364;2023-05-11T09:40:50;95259.75;;;11.40;89.80
6134;BME280;3098;42.678;23.364;2023-05-11T09:43:23;95230.84;;;11.17;91.07
6134;BME280;3098;42.678;23.364;2023-05-11T09:45:52;95109.97;;;10.58;90.76
6134;BME280;3098;42.678;23.364;2023-05-11T09:48:25;95237.84;;;10.90;92.86
6134;BME280;3098;42.678;23.364;2023-05-11T09:50:59;95251.53;;;11.28;92.93
6134;BME280;3098;42.678;23.364;2023-05-11T09:53:38;95248.63;;;11.61;91.35
6134;BME280;3098;42.678;23.364;2023-05-11T09:56:08;95211.63;;;11.42;90.90
6134;BME280;3098;42.678;23.364;2023-05-11T09:58:51;95205.69;;;11.45;90.61
6134;BME280;3098;42.678;23.364;2023-05-11T10:01:27;95184.63;;;11.48;89.50
6134;BME280;3098;42.678;23.364;2023-05-11T10:03:55;95248.22;;;11.76;89.25
6134;BME280;3098;42.678;23.364;2023-05-11T10:06:22;95236.50;;;12.16;87.47
6134;BME280;3098;42.678;23.364;2023-05-11T10:08:49;95232.59;;;11.74;88.88
6134;BME280;3098;42.678;23.364;2023-05-11T10:11:17;95219.38;;;11.91;88.81
6134;BME280;3098;42.678;23.364;2023-05-11T10:13:50;95215.84;;;12.13;87.22
6134;BME280;3098;42.678;23.364;2023-05-11T10:16:19;95166.00;;;11.71;86.57
6134;BME280;3098;42.678;23.364;2023-05-11T10:18:46;95162.88;;;12.51;84.02
6134;BME280;3098;42.678;23.364;2023-05-11T10:21:14;95225.59;;;12.52;83.53
6134;BME280;3098;42.678;23.364;2023-05-11T10:23:42;95212.63;;;12.50;83.71
6134;BME280;3098;42.678;23.364;2023-05-11T10:26:09;95239.81;;;12.30;84.27
6134;BME280;3098;42.678;23.364;2023-05-11T10:28:37;95216.00;;;12.17;85.68
6134;BME280;3098;42.678;23.364;2023-05-11T10:31:08;95201.72;;;11.95;85.39
6134;BME280;3098;42.678;23.364;2023-05-11T10:33:36;95179.91;;;12.50;84.54
6134;BME280;3098;42.678;23.364;2023-05-11T10:36:04;95204.81;;;12.71;83.38
6134;BME280;3098;42.678;23.364;2023-05-11T10:38:33;95171.13;;;12.92;80.55
6134;BME280;3098;42.678;23.364;2023-05-11T10:41:11;95193.22;;;14.03;74.73
6134;BME280;3098;42.678;23.364;2023-05-11T10:43:52;95160.47;;;15.06;66.71
6134;BME280;3098;42.678;23.364;2023-05-11T10:46:39;95146.53;;;14.47;66.49
6134;BME280;3098;42.678;23.364;2023-05-11T10:49:30;95206.63;;;13.86;70.43
6134;BME280;3098;42.678;23.364;2023-05-11T10:52:20;95052.34;;;12.71;72.76
6134;BME280;3098;42.678;23.364;2023-05-11T10:55:05;95185.13;;;13.53;73.28
6134;BME280;3098;42.678;23.364;2023-05-11T10:57:50;95171.41;;;13.34;73.26
6134;BME280;3098;42.678;23.364;2023-05-11T11:01:01;95114.28;;;12.97;73.37
6134;BME280;3098;42.678;23.364;2023-05-11T11:03:38;95175.69;;;12.66;77.36
6134;BME280;3098;42.678;23.364;2023-05-11T11:06:20;95171.47;;;12.56;80.06
6134;BME280;3098;42.678;23.364;2023-05-11T11:08:55;95163.00;;;12.29;80.89
6134;BME280;3098;42.678;23.364;2023-05-11T11:11:31;95182.91;;;12.74;80.98
6134;BME280;3098;42.678;23.364;2023-05-11T11:14:00;95205.56;;;12.97;79.29
6134;BME280;3098;42.678;23.364;2023-05-11T11:16:31;95194.63;;;12.82;79.79
6134;BME280;3098;42.678;23.364;2023-05-11T11:19:36;95186.94;;;12.54;81.15
6134;BME280;3098;42.678;23.364;2023-05-11T11:22:04;95172.88;;;12.45;81.96
6134;BME280;3098;42.678;23.364;2023-05-11T11:24:47;95196.81;;;12.97;80.88
6134;BME280;3098;42.678;23.364;2023-05-11T11:27:15;95180.19;;;13.00;80.96
6134;BME280;3098;42.678;23.364;2023-05-11T11:30:16;95179.75;;;12.81;80.23
6134;BME280;3098;42.678;23.364;2023-05-11T11:32:44;95175.38;;;12.59;79.84
6134;BME280;3098;42.678;23.364;2023-05-11T11:35:45;95171.94;;;12.76;80.41
6134;BME280;3098;42.678;23.364;2023-05-11T11:38:14;95025.50;;;11.21;82.37
6134;BME280;3098;42.678;23.364;2023-05-11T11:40:43;95144.84;;;12.31;81.74
6134;BME280;3098;42.678;23.364;2023-05-11T11:43:11;95184.44;;;12.32;83.07
6134;BME280;3098;42.678;23.364;2023-05-11T11:45:49;95181.94;;;12.79;80.97
6134;BME280;3098;42.678;23.364;2023-05-11T11:48:20;95105.13;;;12.60;79.10
6134;BME280;3098;42.678;23.364;2023-05-11T11:50:48;95179.88;;;13.27;76.93
6134;BME280;3098;42.678;23.364;2023-05-11T11:53:57;95164.09;;;12.96;78.50
6134;BME280;3098;42.678;23.364;2023-05-11T11:56:43;95140.56;;;13.24;77.73
6134;BME280;3098;42.678;23.364;2023-05-11T11:59:11;95174.47;;;13.53;76.93
6134;BME280;3098;42.678;23.364;2023-05-11T12:01:43;95148.31;;;12.74;78.11
6134;BME280;3098;42.678;23.364;2023-05-11T12:04:39;95175.53;;;12.71;79.75
6134;BME280;3098;42.678;23.364;2023-05-11T12:07:12;95189.94;;;12.44;82.10
6134;BME280;3098;42.678;23.364;2023-05-11T12:09:44;95172.72;;;12.59;80.99
6134;BME280;3098;42.678;23.364;2023-05-11T12:12:12;95167.06;;;12.35;82.80
6134;BME280;3098;42.678;23.364;2023-05-11T12:14:43;95115.44;;;12.10;82.45
6134;BME280;3098;42.678;23.364;2023-05-11T12:17:18;95139.38;;;12.36;83.15
6134;BME280;3098;42.678;23.364;2023-05-11T12:19:49;95156.13;;;12.28;82.60
6134;BME280;3098;42.678;23.364;2023-05-11T12:22:21;95159.56;;;12.71;82.38
6134;BME280;3098;42.678;23.364;2023-05-11T12:24:49;95161.00;;;12.51;82.38
6134;BME280;3098;42.678;23.364;2023-05-11T12:27:16;95160.50;;;12.75;83.31
6134;BME280;3098;42.678;23.364;2023-05-11T12:29:47;95103.53;;;12.16;82.20
6134;BME280;3098;42.678;23.364;2023-05-11T12:32:24;95159.88;;;12.44;82.08
6134;BME280;3098;42.678;23.364;2023-05-11T12:35:00;95131.06;;;12.46;81.40
6134;BME280;3098;42.678;23.364;2023-05-11T12:37:29;95141.59;;;12.42;81.43
6134;BME280;3098;42.678;23.364;2023-05-11T12:39:57;95134.38;;;12.43;82.70
6134;BME280;3098;42.678;23.364;2023-05-11T12:42:25;95125.28;;;12.44;81.25
6134;BME280;3098;42.678;23.364;2023-05-11T12:44:53;95068.56;;;11.58;82.39
6134;BME280;3098;42.678;23.364;2023-05-11T12:47:23;95119.34;;;12.13;83.31
6134;BME280;3098;42.678;23.364;2023-05-11T12:49:50;95119.03;;;12.31;81.29
6134;BME280;3098;42.678;23.364;2023-05-11T12:52:17;95132.34;;;12.23;82.71
6134;BME280;3098;42.678;23.364;2023-05-11T12:54:48;95092.91;;;12.07;81.85
6134;BME280;3098;42.678;23.364;2023-05-11T12:57:23;95086.97;;;12.19;82.27
6134;BME280;3098;42.678;23.364;2023-05-11T13:00:05;95086.00;;;12.49;81.75
6134;BME280;3098;42.678;23.364;2023-05-11T13:02:34;95119.50;;;12.76;80.17
6134;BME280;3098;42.678;23.364;2023-05-11T13:05:09;95107.44;;;12.53;80.10
6134;BME280;3098;42.678;23.364;2023-05-11T13:07:38;95099.03;;;12.25;81.94
6134;BME280;3098;42.678;23.364;2023-05-11T13:10:06;95105.25;;;12.12;83.05
6134;BME280;3098;42.678;23.364;2023-05-11T13:12:33;95069.25;;;11.72;83.15
6134;BME280;3098;42.678;23.364;2023-05-11T13:15:06;95047.84;;;11.85;83.51
6134;BME280;3098;42.678;23.364;2023-05-11T13:17:37;95091.03;;;12.34;81.56
6134;BME280;3098;42.678;23.364;2023-05-11T13:20:21;95031.59;;;12.04;80.90
6134;BME280;3098;42.678;23.364;2023-05-11T13:22:51;95141.41;;;12.73;79.10
6134;BME280;3098;42.678;23.364;2023-05-11T13:25:28;95116.06;;;12.58;81.37